sensor_id;sensor_type;location;lat;lon;timestamp;P1;durP1;ratioP1;P2;durP2;ratioP2
21430;SDS011;10876;49.038;10.608;2023-02-01T00:00:00;7.18;;;3.90;;
21430;SDS011;10876;49.038;10.608;2023-02-01T00:02:26;6.43;;;3.40;;
21430;SDS011;10876;49.038;10.608;2023-02-01T00:04:53;8.15;;;4.07;;
21430;SDS011;10876;49.038;10.608;2023-02-01T00:07:20;6.90;;;3.60;;
21430;SDS011;10876;49.038;10.608;2023-02-01T00:09:46;7.15;;;4.03;;
21430;SDS011;10876;49.038;10.608;2023-02-01T00:12:15;9.27;;;4.32;;
21430;SDS011;10876;49.038;10.608;2023-02-01T00:14:41;8.10;;;4.30;;
21430;SDS011;10876;49.038;10.608;2023-02-01T00:17:08;9.70;;;4.78;;
21430;SDS011;10876;49.038;10.608;2023-02-01T00:19:35;7.63;;;4.22;;
21430;SDS011;10876;49.038;10.608;2023-02-01T00:22:01;6.05;;;3.92;;
21430;SDS011;10876;49.038;10.608;2023-02-01T00:24:28;7.10;;;3.70;;
21430;SDS011;10876;49.038;10.608;2023-02-01T00:26:55;6.85;;;3.10;;
21430;SDS011;10876;49.038;10.608;2023-02-01T00:29:23;5.45;;;3.33;;
21430;SDS011;10876;49.038;10.608;2023-02-01T00:31:50;6.22;;;3.63;;
21430;SDS011;10876;49.038;10.608;2023-02-01T00:34:17;6.78;;;3.90;;
21430;SDS011;10876;49.038;10.608;2023-02-01T00:36:44;6.70;;;3.53;;
21430;SDS011;10876;49.038;10.608;2023-02-01T00:39:11;7.00;;;3.50;;
21430;SDS011;10876;49.038;10.608;2023-02-01T00:41:38;6.60;;;3.75;;
21430;SDS011;10876;49.038;10.608;2023-02-01T00:44:05;5.80;;;3.45;;
21430;SDS011;10876;49.038;10.608;2023-02-01T00:46:33;7.28;;;4.25;;
21430;SDS011;10876;49.038;10.608;2023-02-01T00:49:00;8.88;;;4.05;;
21430;SDS011;10876;49.038;10.608;2023-02-01T00:51:28;8.80;;;4.03;;
21430;SDS011;10876;49.038;10.608;2023-02-01T00:53:54;7.03;;;4.03;;
21430;SDS011;10876;49.038;10.608;2023-02-01T00:56:21;7.22;;;4.07;;
21430;SDS011;10876;49.038;10.608;2023-02-01T00:58:48;9.00;;;4.15;;
21430;SDS011;10876;49.038;10.608;2023-02-01T01:01:16;6.85;;;3.83;;
21430;SDS011;10876;49.038;10.608;2023-02-01T01:03:45;7.55;;;4.53;;
21430;SDS011;10876;49.038;10.608;2023-02-01T01:06:13;10.07;;;4.07;;
21430;SDS011;10876;49.038;10.608;2023-02-01T01:08:40;6.72;;;3.58;;
21430;SDS011;10876;49.038;10.608;2023-02-01T01:11:07;6.50;;;3.83;;
21430;SDS011;10876;49.038;10.608;2023-02-01T01:13:34;10.15;;;3.83;;
21430;SDS011;10876;49.038;10.608;2023-02-01T01:16:01;7.35;;;3.85;;
21430;SDS011;10876;49.038;10.608;2023-02-01T01:18:29;8.70;;;3.35;;
21430;SDS011;10876;49.038;10.608;2023-02-01T01:20:57;7.45;;;3.50;;
21430;SDS011;10876;49.038;10.608;2023-02-01T01:23:24;5.22;;;3.40;;
21430;SDS011;10876;49.038;10.608;2023-02-01T01:25:51;6.68;;;3.78;;
21430;SDS011;10876;49.038;10.608;2023-02-01T01:28:17;5.13;;;3.53;;
21430;SDS011;10876;49.038;10.608;2023-02-01T01:30:44;5.47;;;3.33;;
21430;SDS011;10876;49.038;10.608;2023-02-01T01:33:11;6.97;;;3.13;;
21430;SDS011;10876;49.038;10.608;2023-02-01T01:35:37;5.47;;;3.20;;
21430;SDS011;10876;49.038;10.608;2023-02-01T01:38:06;7.28;;;3.60;;
21430;SDS011;10876;49.038;10.608;2023-02-01T01:40:32;4.30;;;3.20;;
21430;SDS011;10876;49.038;10.608;2023-02-01T01:42:59;6.55;;;3.20;;
21430;SDS011;10876;49.038;10.608;2023-02-01T01:45:26;7.22;;;2.88;;
21430;SDS011;10876;49.038;10.608;2023-02-01T01:47:54;5.90;;;3.15;;
21430;SDS011;10876;49.038;10.608;2023-02-01T01:50:23;6.38;;;3.67;;
21430;SDS011;10876;49.038;10.608;2023-02-01T01:52:51;4.47;;;3.20;;
21430;SDS011;10876;49.038;10.608;2023-02-01T01:55:20;5.60;;;2.92;;
21430;SDS011;10876;49.038;10.608;2023-02-01T01:57:47;6.57;;;3.33;;
21430;SDS011;10876;49.038;10.608;2023-02-01T02:00:17;5.47;;;2.92;;
21430;SDS011;10876;49.038;10.608;2023-02-01T02:02:46;5.35;;;2.53;;
21430;SDS011;10876;49.038;10.608;2023-02-01T02:05:14;4.30;;;2.83;;
21430;SDS011;10876;49.038;10.608;2023-02-01T02:07:43;4.93;;;2.97;;
21430;SDS011;10876;49.038;10.608;2023-02-01T02:10:12;4.18;;;2.63;;
21430;SDS011;10876;49.038;10.608;2023-02-01T02:12:40;3.50;;;2.67;;
21430;SDS011;10876;49.038;10.608;2023-02-01T02:15:08;3.67;;;2.47;;
21430;SDS011;10876;49.038;10.608;2023-02-01T02:17:36;4.65;;;2.50;;
21430;SDS011;10876;49.038;10.608;2023-02-01T02:20:19;5.15;;;3.22;;
21430;SDS011;10876;49.038;10.608;2023-02-01T02:25:33;4.93;;;2.60;;
21430;SDS011;10876;49.038;10.608;2023-02-01T02:28:08;4.57;;;2.70;;
21430;SDS011;10876;49.038;10.608;2023-02-01T02:30:45;4.55;;;2.97;;
21430;SDS011;10876;49.038;10.608;2023-02-01T02:36:00;4.93;;;2.50;;
21430;SDS011;10876;49.038;10.608;2023-02-01T02:38:30;3.92;;;2.58;;
21430;SDS011;10876;49.038;10.608;2023-02-01T02:41:01;4.38;;;2.60;;
21430;SDS011;10876;49.038;10.608;2023-02-01T02:43:31;5.53;;;2.60;;
21430;SDS011;10876;49.038;10.608;2023-02-01T02:46:20;3.10;;;2.10;;
21430;SDS011;10876;49.038;10.608;2023-02-01T02:49:09;4.35;;;2.45;;
21430;SDS011;10876;49.038;10.608;2023-02-01T02:51:40;6.22;;;2.63;;
21430;SDS011;10876;49.038;10.608;2023-02-01T02:54:25;5.00;;;2.60;;
21430;SDS011;10876;49.038;10.608;2023-02-01T02:57:13;4.78;;;2.88;;
21430;SDS011;10876;49.038;10.608;2023-02-01T02:59:58;6.05;;;2.50;;
21430;SDS011;10876;49.038;10.608;2023-02-01T03:02:44;3.47;;;2.42;;
21430;SDS011;10876;49.038;10.608;2023-02-01T03:05:32;5.18;;;2.70;;
21430;SDS011;10876;49.038;10.608;2023-02-01T03:08:03;4.50;;;2.72;;
21430;SDS011;10876;49.038;10.608;2023-02-01T03:10:36;4.50;;;2.42;;
21430;SDS011;10876;49.038;10.608;2023-02-01T03:13:05;2.97;;;2.45;;
21430;SDS011;10876;49.038;10.608;2023-02-01T03:15:32;2.90;;;2.13;;
21430;SDS011;10876;49.038;10.608;2023-02-01T03:18:00;4.25;;;2.55;;
21430;SDS011;10876;49.038;10.608;2023-02-01T03:20:28;3.05;;;2.38;;
21430;SDS011;10876;49.038;10.608;2023-02-01T03:22:59;4.30;;;2.25;;
21430;SDS011;10876;49.038;10.608;2023-02-01T03:25:27;4.35;;;2.50;;
21430;SDS011;10876;49.038;10.608;2023-02-01T03:27:57;3.22;;;2.20;;
21430;SDS011;10876;49.038;10.608;2023-02-01T03:30:25;4.05;;;2.28;;
21430;SDS011;10876;49.038;10.608;2023-02-01T03:32:54;3.60;;;2.40;;
21430;SDS011;10876;49.038;10.608;2023-02-01T03:35:26;3.63;;;2.35;;
21430;SDS011;10876;49.038;10.608;2023-02-01T03:37:56;3.60;;;2.08;;
21430;SDS011;10876;49.038;10.608;2023-02-01T03:40:24;3.75;;;2.40;;
21430;SDS011;10876;49.038;10.608;2023-02-01T03:42:54;3.28;;;2.13;;
21430;SDS011;10876;49.038;10.608;2023-02-01T03:45:22;3.20;;;2.28;;
21430;SDS011;10876;49.038;10.608;2023-02-01T03:47:51;5.00;;;2.53;;
21430;SDS011;10876;49.038;10.608;2023-02-01T03:50:20;2.85;;;2.08;;
21430;SDS011;10876;49.038;10.608;2023-02-01T03:52:48;2.97;;;2.20;;
21430;SDS011;10876;49.038;10.608;2023-02-01T03:55:17;3.40;;;2.15;;
21430;SDS011;10876;49.038;10.608;2023-02-01T03:57:48;4.32;;;2.33;;
21430;SDS011;10876;49.038;10.608;2023-02-01T04:00:19;6.30;;;2.60;;
21430;SDS011;10876;49.038;10.608;2023-02-01T04:02:47;3.97;;;2.40;;
21430;SDS011;10876;49.038;10.608;2023-02-01T04:05:14;4.55;;;2.33;;
21430;SDS011;10876;49.038;10.608;2023-02-01T04:07:40;3.92;;;2.25;;
21430;SDS011;10876;49.038;10.608;2023-02-01T04:10:08;3.75;;;2.25;;
21430;SDS011;10876;49.038;10.608;2023-02-01T04:12:35;2.28;;;1.92;;
21430;SDS011;10876;49.038;10.608;2023-02-01T04:15:01;5.13;;;2.15;;
21430;SDS011;10876;49.038;10.608;2023-02-01T04:17:30;2.83;;;2.22;;
21430;SDS011;10876;49.038;10.608;2023-02-01T04:19:56;3.65;;;2.25;;
21430;SDS011;10876;49.038;10.608;2023-02-01T04:22:23;2.20;;;2.00;;
21430;SDS011;10876;49.038;10.608;2023-02-01T04:24:50;2.03;;;1.75;;
21430;SDS011;10876;49.038;10.608;2023-02-01T04:27:16;3.10;;;2.30;;
21430;SDS011;10876;49.038;10.608;2023-02-01T04:29:43;3.63;;;2.20;;
21430;SDS011;10876;49.038;10.608;2023-02-01T04:32:10;3.08;;;1.90;;
21430;SDS011;10876;49.038;10.608;2023-02-01T04:34:38;3.13;;;1.98;;
21430;SDS011;10876;49.038;10.608;2023-02-01T04:37:05;3.53;;;2.00;;
21430;SDS011;10876;49.038;10.608;2023-02-01T04:39:32;3.47;;;2.10;;
21430;SDS011;10876;49.038;10.608;2023-02-01T04:41:59;4.78;;;2.05;;
21430;SDS011;10876;49.038;10.608;2023-02-01T04:44:25;3.70;;;2.20;;
21430;SDS011;10876;49.038;10.608;2023-02-01T04:46:53;2.45;;;2.08;;
21430;SDS011;10876;49.038;10.608;2023-02-01T04:49:19;3.88;;;2.20;;
21430;SDS011;10876;49.038;10.608;2023-02-01T04:51:48;3.80;;;1.80;;
21430;SDS011;10876;49.038;10.608;2023-02-01T04:54:14;3.67;;;1.90;;
21430;SDS011;10876;49.038;10.608;2023-02-01T04:56:41;3.22;;;2.38;;
21430;SDS011;10876;49.038;10.608;2023-02-01T04:59:10;3.05;;;2.30;;
21430;SDS011;10876;49.038;10.608;2023-02-01T05:01:36;5.18;;;2.35;;
21430;SDS011;10876;49.038;10.608;2023-02-01T05:04:03;2.40;;;2.00;;
21430;SDS011;10876;49.038;10.608;2023-02-01T05:06:30;2.95;;;2.05;;
21430;SDS011;10876;49.038;10.608;2023-02-01T05:08:58;3.08;;;2.03;;
21430;SDS011;10876;49.038;10.608;2023-02-01T05:11:25;3.35;;;1.83;;
21430;SDS011;10876;49.038;10.608;2023-02-01T05:14:09;4.90;;;2.38;;
21430;SDS011;10876;49.038;10.608;2023-02-01T05:16:35;4.63;;;2.00;;
21430;SDS011;10876;49.038;10.608;2023-02-01T05:19:02;4.38;;;2.45;;
21430;SDS011;10876;49.038;10.608;2023-02-01T05:21:29;5.57;;;2.58;;
21430;SDS011;10876;49.038;10.608;2023-02-01T05:23:56;3.97;;;2.33;;
21430;SDS011;10876;49.038;10.608;2023-02-01T05:26:46;4.95;;;2.20;;
21430;SDS011;10876;49.038;10.608;2023-02-01T05:29:13;3.33;;;2.40;;
21430;SDS011;10876;49.038;10.608;2023-02-01T05:31:40;2.70;;;1.88;;
21430;SDS011;10876;49.038;10.608;2023-02-01T05:34:07;3.60;;;2.42;;
21430;SDS011;10876;49.038;10.608;2023-02-01T05:36:34;3.33;;;2.25;;
21430;SDS011;10876;49.038;10.608;2023-02-01T05:39:01;3.33;;;2.17;;
21430;SDS011;10876;49.038;10.608;2023-02-01T05:41:27;2.13;;;1.90;;
21430;SDS011;10876;49.038;10.608;2023-02-01T05:43:55;4.97;;;2.08;;
21430;SDS011;10876;49.038;10.608;2023-02-01T05:46:22;3.00;;;2.20;;
21430;SDS011;10876;49.038;10.608;2023-02-01T05:48:49;6.70;;;2.38;;
21430;SDS011;10876;49.038;10.608;2023-02-01T05:51:15;2.95;;;2.40;;
21430;SDS011;10876;49.038;10.608;2023-02-01T05:53:42;5.68;;;2.03;;
21430;SDS011;10876;49.038;10.608;2023-02-01T05:56:08;3.72;;;2.10;;
21430;SDS011;10876;49.038;10.608;2023-02-01T05:58:35;4.63;;;2.65;;
21430;SDS011;10876;49.038;10.608;2023-02-01T06:01:03;3.95;;;2.47;;
21430;SDS011;10876;49.038;10.608;2023-02-01T06:03:30;3.78;;;2.28;;
21430;SDS011;10876;49.038;10.608;2023-02-01T06:05:58;2.55;;;1.98;;
21430;SDS011;10876;49.038;10.608;2023-02-01T06:08:25;4.82;;;2.40;;
21430;SDS011;10876;49.038;10.608;2023-02-01T06:10:56;4.40;;;2.40;;
21430;SDS011;10876;49.038;10.608;2023-02-01T06:13:23;3.97;;;2.45;;
21430;SDS011;10876;49.038;10.608;2023-02-01T06:15:50;3.60;;;2.70;;
21430;SDS011;10876;49.038;10.608;2023-02-01T06:18:18;4.55;;;2.40;;
21430;SDS011;10876;49.038;10.608;2023-02-01T06:20:51;4.07;;;2.67;;
21430;SDS011;10876;49.038;10.608;2023-02-01T06:23:17;3.38;;;2.50;;
21430;SDS011;10876;49.038;10.608;2023-02-01T06:25:44;5.50;;;2.78;;
21430;SDS011;10876;49.038;10.608;2023-02-01T06:28:11;3.38;;;2.38;;
21430;SDS011;10876;49.038;10.608;2023-02-01T06:30:38;3.65;;;2.67;;
21430;SDS011;10876;49.038;10.608;2023-02-01T06:33:06;4.43;;;2.50;;
21430;SDS011;10876;49.038;10.608;2023-02-01T06:35:34;5.22;;;2.47;;
21430;SDS011;10876;49.038;10.608;2023-02-01T06:38:01;3.33;;;2.13;;
21430;SDS011;10876;49.038;10.608;2023-02-01T06:40:27;3.15;;;2.35;;
21430;SDS011;10876;49.038;10.608;2023-02-01T06:42:54;4.53;;;2.50;;
21430;SDS011;10876;49.038;10.608;2023-02-01T06:45:21;3.78;;;2.33;;
21430;SDS011;10876;49.038;10.608;2023-02-01T06:47:47;4.50;;;2.55;;
21430;SDS011;10876;49.038;10.608;2023-02-01T06:50:14;6.10;;;2.90;;
21430;SDS011;10876;49.038;10.608;2023-02-01T06:52:42;5.22;;;2.70;;
21430;SDS011;10876;49.038;10.608;2023-02-01T06:55:09;3.10;;;2.35;;
21430;SDS011;10876;49.038;10.608;2023-02-01T06:57:36;6.20;;;2.22;;
21430;SDS011;10876;49.038;10.608;2023-02-01T07:00:03;2.58;;;2.25;;
21430;SDS011;10876;49.038;10.608;2023-02-01T07:02:30;3.47;;;2.40;;
21430;SDS011;10876;49.038;10.608;2023-02-01T07:04:56;5.18;;;2.45;;
21430;SDS011;10876;49.038;10.608;2023-02-01T07:07:23;4.05;;;2.20;;
21430;SDS011;10876;49.038;10.608;2023-02-01T07:09:51;7.03;;;2.72;;
21430;SDS011;10876;49.038;10.608;2023-02-01T07:12:18;8.35;;;4.72;;
21430;SDS011;10876;49.038;10.608;2023-02-01T07:14:45;4.43;;;3.00;;
21430;SDS011;10876;49.038;10.608;2023-02-01T07:17:12;3.95;;;3.13;;
21430;SDS011;10876;49.038;10.608;2023-02-01T07:19:38;4.07;;;2.90;;
21430;SDS011;10876;49.038;10.608;2023-02-01T07:22:05;3.70;;;2.90;;
21430;SDS011;10876;49.038;10.608;2023-02-01T07:24:33;4.07;;;3.03;;
21430;SDS011;10876;49.038;10.608;2023-02-01T07:27:01;3.92;;;2.78;;
21430;SDS011;10876;49.038;10.608;2023-02-01T07:29:28;5.15;;;2.97;;
21430;SDS011;10876;49.038;10.608;2023-02-01T07:31:54;3.60;;;2.95;;
21430;SDS011;10876;49.038;10.608;2023-02-01T07:34:21;4.40;;;2.75;;
21430;SDS011;10876;49.038;10.608;2023-02-01T07:36:48;4.60;;;2.72;;
21430;SDS011;10876;49.038;10.608;2023-02-01T07:39:14;5.05;;;2.72;;
21430;SDS011;10876;49.038;10.608;2023-02-01T07:41:41;4.32;;;3.05;;
21430;SDS011;10876;49.038;10.608;2023-02-01T07:44:09;6.50;;;3.53;;
21430;SDS011;10876;49.038;10.608;2023-02-01T07:46:36;8.77;;;3.47;;
21430;SDS011;10876;49.038;10.608;2023-02-01T07:49:04;4.60;;;3.00;;
21430;SDS011;10876;49.038;10.608;2023-02-01T07:51:31;5.05;;;3.05;;
21430;SDS011;10876;49.038;10.608;2023-02-01T07:53:58;4.68;;;2.80;;
21430;SDS011;10876;49.038;10.608;2023-02-01T07:56:24;6.03;;;2.85;;
21430;SDS011;10876;49.038;10.608;2023-02-01T07:58:52;5.18;;;2.88;;
21430;SDS011;10876;49.038;10.608;2023-02-01T08:01:21;5.88;;;3.13;;
21430;SDS011;10876;49.038;10.608;2023-02-01T08:03:50;7.28;;;3.05;;
21430;SDS011;10876;49.038;10.608;2023-02-01T08:06:17;5.15;;;3.33;;
21430;SDS011;10876;49.038;10.608;2023-02-01T08:08:44;7.57;;;3.38;;
21430;SDS011;10876;49.038;10.608;2023-02-01T08:11:12;6.05;;;3.13;;
21430;SDS011;10876;49.038;10.608;2023-02-01T08:13:39;5.50;;;3.00;;
21430;SDS011;10876;49.038;10.608;2023-02-01T08:16:06;5.95;;;3.45;;
21430;SDS011;10876;49.038;10.608;2023-02-01T08:18:35;8.23;;;4.07;;
21430;SDS011;10876;49.038;10.608;2023-02-01T08:21:05;7.45;;;3.50;;
21430;SDS011;10876;49.038;10.608;2023-02-01T08:23:32;6.95;;;4.18;;
21430;SDS011;10876;49.038;10.608;2023-02-01T08:26:08;5.70;;;3.60;;
21430;SDS011;10876;49.038;10.608;2023-02-01T08:28:36;8.07;;;3.53;;
21430;SDS011;10876;49.038;10.608;2023-02-01T08:31:06;6.28;;;3.45;;
21430;SDS011;10876;49.038;10.608;2023-02-01T08:33:34;5.53;;;3.40;;
21430;SDS011;10876;49.038;10.608;2023-02-01T08:36:02;8.48;;;3.17;;
21430;SDS011;10876;49.038;10.608;2023-02-01T08:38:29;6.35;;;3.05;;
21430;SDS011;10876;49.038;10.608;2023-02-01T08:40:55;7.75;;;3.50;;
21430;SDS011;10876;49.038;10.608;2023-02-01T08:43:22;6.72;;;3.45;;
21430;SDS011;10876;49.038;10.608;2023-02-01T08:45:50;6.82;;;3.75;;
21430;SDS011;10876;49.038;10.608;2023-02-01T08:48:16;7.95;;;3.63;;
21430;SDS011;10876;49.038;10.608;2023-02-01T08:50:44;6.25;;;3.08;;
21430;SDS011;10876;49.038;10.608;2023-02-01T08:53:11;7.82;;;3.50;;
21430;SDS011;10876;49.038;10.608;2023-02-01T08:55:39;9.18;;;3.50;;
21430;SDS011;10876;49.038;10.608;2023-02-01T08:58:06;8.38;;;4.20;;
21430;SDS011;10876;49.038;10.608;2023-02-01T09:00:36;9.13;;;5.35;;
21430;SDS011;10876;49.038;10.608;2023-02-01T09:03:02;8.25;;;3.28;;
21430;SDS011;10876;49.038;10.608;2023-02-01T09:05:29;7.70;;;3.00;;
21430;SDS011;10876;49.038;10.608;2023-02-01T09:07:57;6.97;;;3.17;;
21430;SDS011;10876;49.038;10.608;2023-02-01T09:10:24;9.35;;;3.50;;
21430;SDS011;10876;49.038;10.608;2023-02-01T09:12:51;6.50;;;3.20;;
21430;SDS011;10876;49.038;10.608;2023-02-01T09:15:18;6.13;;;3.10;;
21430;SDS011;10876;49.038;10.608;2023-02-01T09:17:45;9.15;;;3.47;;
21430;SDS011;10876;49.038;10.608;2023-02-01T09:20:12;7.30;;;2.72;;
21430;SDS011;10876;49.038;10.608;2023-02-01T09:22:38;5.20;;;2.63;;
21430;SDS011;10876;49.038;10.608;2023-02-01T09:25:07;7.28;;;2.90;;
21430;SDS011;10876;49.038;10.608;2023-02-01T09:27:34;5.35;;;2.35;;
21430;SDS011;10876;49.038;10.608;2023-02-01T09:30:01;7.40;;;2.72;;
21430;SDS011;10876;49.038;10.608;2023-02-01T09:32:28;5.85;;;2.28;;
21430;SDS011;10876;49.038;10.608;2023-02-01T09:34:55;3.72;;;2.63;;
21430;SDS011;10876;49.038;10.608;2023-02-01T09:37:21;9.35;;;3.22;;
21430;SDS011;10876;49.038;10.608;2023-02-01T09:39:48;7.07;;;2.85;;
21430;SDS011;10876;49.038;10.608;2023-02-01T09:42:19;4.63;;;2.70;;
21430;SDS011;10876;49.038;10.608;2023-02-01T09:44:53;4.90;;;2.60;;
21430;SDS011;10876;49.038;10.608;2023-02-01T09:47:25;6.07;;;2.63;;
21430;SDS011;10876;49.038;10.608;2023-02-01T09:49:55;4.07;;;2.53;;
21430;SDS011;10876;49.038;10.608;2023-02-01T09:52:24;4.80;;;2.40;;
21430;SDS011;10876;49.038;10.608;2023-02-01T09:54:54;8.00;;;3.05;;
21430;SDS011;10876;49.038;10.608;2023-02-01T09:57:30;4.05;;;2.40;;
21430;SDS011;10876;49.038;10.608;2023-02-01T10:00:03;5.30;;;2.97;;
21430;SDS011;10876;49.038;10.608;2023-02-01T10:02:31;5.72;;;2.72;;
21430;SDS011;10876;49.038;10.608;2023-02-01T10:05:00;8.45;;;3.40;;
21430;SDS011;10876;49.038;10.608;2023-02-01T10:07:30;9.65;;;3.40;;
21430;SDS011;10876;49.038;10.608;2023-02-01T10:10:00;4.72;;;2.78;;
21430;SDS011;10876;49.038;10.608;2023-02-01T10:15:22;5.55;;;2.53;;
21430;SDS011;10876;49.038;10.608;2023-02-01T10:17:58;6.32;;;2.50;;
21430;SDS011;10876;49.038;10.608;2023-02-01T10:20:27;8.25;;;2.00;;
21430;SDS011;10876;49.038;10.608;2023-02-01T10:22:58;6.10;;;2.47;;
21430;SDS011;10876;49.038;10.608;2023-02-01T10:25:31;7.00;;;3.30;;
21430;SDS011;10876;49.038;10.608;2023-02-01T10:27:59;8.43;;;2.75;;
21430;SDS011;10876;49.038;10.608;2023-02-01T10:30:29;8.63;;;2.65;;
21430;SDS011;10876;49.038;10.608;2023-02-01T10:33:03;5.35;;;2.85;;
21430;SDS011;10876;49.038;10.608;2023-02-01T10:35:33;7.50;;;3.30;;
21430;SDS011;10876;49.038;10.608;2023-02-01T10:38:03;8.40;;;3.00;;
21430;SDS011;10876;49.038;10.608;2023-02-01T10:40:34;5.93;;;3.17;;
21430;SDS011;10876;49.038;10.608;2023-02-01T10:43:03;12.82;;;3.58;;
21430;SDS011;10876;49.038;10.608;2023-02-01T10:45:32;9.82;;;3.50;;
21430;SDS011;10876;49.038;10.608;2023-02-01T10:47:59;8.68;;;3.25;;
21430;SDS011;10876;49.038;10.608;2023-02-01T10:50:30;5.32;;;3.17;;
21430;SDS011;10876;49.038;10.608;2023-02-01T10:53:01;8.95;;;3.33;;
21430;SDS011;10876;49.038;10.608;2023-02-01T10:55:40;8.13;;;3.10;;
21430;SDS011;10876;49.038;10.608;2023-02-01T10:58:13;9.60;;;3.55;;
21430;SDS011;10876;49.038;10.608;2023-02-01T11:00:46;7.82;;;3.78;;
21430;SDS011;10876;49.038;10.608;2023-02-01T11:03:20;8.85;;;3.25;;
21430;SDS011;10876;49.038;10.608;2023-02-01T11:05:47;10.90;;;3.35;;
21430;SDS011;10876;49.038;10.608;2023-02-01T11:08:14;9.75;;;3.92;;
21430;SDS011;10876;49.038;10.608;2023-02-01T11:10:43;7.32;;;2.83;;
21430;SDS011;10876;49.038;10.608;2023-02-01T11:13:11;15.05;;;3.17;;
21430;SDS011;10876;49.038;10.608;2023-02-01T11:15:42;6.53;;;3.40;;
21430;SDS011;10876;49.038;10.608;2023-02-01T11:18:16;7.05;;;3.05;;
21430;SDS011;10876;49.038;10.608;2023-02-01T11:20:43;7.97;;;3.40;;
21430;SDS011;10876;49.038;10.608;2023-02-01T11:23:14;8.50;;;3.03;;
21430;SDS011;10876;49.038;10.608;2023-02-01T11:25:47;6.93;;;2.47;;
21430;SDS011;10876;49.038;10.608;2023-02-01T11:28:14;5.80;;;2.58;;
21430;SDS011;10876;49.038;10.608;2023-02-01T11:30:42;7.07;;;2.80;;
21430;SDS011;10876;49.038;10.608;2023-02-01T11:33:12;7.07;;;3.13;;
21430;SDS011;10876;49.038;10.608;2023-02-01T11:35:41;9.23;;;3.40;;
21430;SDS011;10876;49.038;10.608;2023-02-01T11:38:16;9.23;;;2.75;;
21430;SDS011;10876;49.038;10.608;2023-02-01T11:40:45;7.82;;;2.80;;
21430;SDS011;10876;49.038;10.608;2023-02-01T11:43:14;10.40;;;3.10;;
21430;SDS011;10876;49.038;10.608;2023-02-01T11:45:41;6.45;;;3.05;;
21430;SDS011;10876;49.038;10.608;2023-02-01T11:48:19;8.20;;;2.88;;
21430;SDS011;10876;49.038;10.608;2023-02-01T11:50:49;11.25;;;3.80;;
21430;SDS011;10876;49.038;10.608;2023-02-01T11:53:20;8.98;;;2.70;;
21430;SDS011;10876;49.038;10.608;2023-02-01T11:55:52;8.43;;;2.30;;
21430;SDS011;10876;49.038;10.608;2023-02-01T11:58:35;6.85;;;2.10;;
21430;SDS011;10876;49.038;10.608;2023-02-01T12:01:07;9.82;;;2.40;;
21430;SDS011;10876;49.038;10.608;2023-02-01T12:06:24;7.00;;;2.63;;
21430;SDS011;10876;49.038;10.608;2023-02-01T12:09:02;6.65;;;2.78;;
21430;SDS011;10876;49.038;10.608;2023-02-01T12:11:41;4.88;;;2.30;;
21430;SDS011;10876;49.038;10.608;2023-02-01T12:14:23;7.88;;;2.03;;
21430;SDS011;10876;49.038;10.608;2023-02-01T12:16:53;8.68;;;2.33;;
21430;SDS011;10876;49.038;10.608;2023-02-01T12:19:30;9.52;;;2.08;;
21430;SDS011;10876;49.038;10.608;2023-02-01T12:22:05;5.93;;;2.13;;
21430;SDS011;10876;49.038;10.608;2023-02-01T12:24:45;6.95;;;2.35;;
21430;SDS011;10876;49.038;10.608;2023-02-01T12:27:21;4.43;;;1.70;;
21430;SDS011;10876;49.038;10.608;2023-02-01T12:32:43;7.55;;;2.58;;
21430;SDS011;10876;49.038;10.608;2023-02-01T12:35:26;4.05;;;1.67;;
21430;SDS011;10876;49.038;10.608;2023-02-01T12:38:03;7.15;;;2.35;;
21430;SDS011;10876;49.038;10.608;2023-02-01T12:40:42;5.95;;;2.00;;
21430;SDS011;10876;49.038;10.608;2023-02-01T12:43:09;6.65;;;1.92;;
21430;SDS011;10876;49.038;10.608;2023-02-01T12:45:40;7.00;;;2.72;;
21430;SDS011;10876;49.038;10.608;2023-02-01T12:48:14;6.78;;;2.58;;
21430;SDS011;10876;49.038;10.608;2023-02-01T12:50:47;4.40;;;2.13;;
21430;SDS011;10876;49.038;10.608;2023-02-01T12:53:17;8.32;;;2.58;;
21430;SDS011;10876;49.038;10.608;2023-02-01T12:55:47;7.25;;;2.83;;
21430;SDS011;10876;49.038;10.608;2023-02-01T12:58:17;5.03;;;1.85;;
21430;SDS011;10876;49.038;10.608;2023-02-01T13:00:46;6.03;;;2.22;;
21430;SDS011;10876;49.038;10.608;2023-02-01T13:03:19;8.15;;;2.22;;
21430;SDS011;10876;49.038;10.608;2023-02-01T13:05:50;6.28;;;1.95;;
21430;SDS011;10876;49.038;10.608;2023-02-01T13:08:19;11.02;;;2.53;;
21430;SDS011;10876;49.038;10.608;2023-02-01T13:10:48;10.90;;;4.97;;
21430;SDS011;10876;49.038;10.608;2023-02-01T13:13:19;8.35;;;2.05;;
21430;SDS011;10876;49.038;10.608;2023-02-01T13:15:49;6.45;;;2.38;;
21430;SDS011;10876;49.038;10.608;2023-02-01T13:18:18;10.90;;;2.53;;
21430;SDS011;10876;49.038;10.608;2023-02-01T13:20:47;5.50;;;2.05;;
21430;SDS011;10876;49.038;10.608;2023-02-01T13:23:27;6.68;;;2.83;;
21430;SDS011;10876;49.038;10.608;2023-02-01T13:25:55;10.82;;;3.08;;
21430;SDS011;10876;49.038;10.608;2023-02-01T13:28:24;4.57;;;2.05;;
21430;SDS011;10876;49.038;10.608;2023-02-01T13:33:37;9.63;;;2.63;;
21430;SDS011;10876;49.038;10.608;2023-02-01T13:36:14;10.18;;;2.58;;
21430;SDS011;10876;49.038;10.608;2023-02-01T13:39:03;6.82;;;2.45;;
21430;SDS011;10876;49.038;10.608;2023-02-01T13:41:35;10.75;;;2.47;;
21430;SDS011;10876;49.038;10.608;2023-02-01T13:44:09;7.35;;;2.60;;
21430;SDS011;10876;49.038;10.608;2023-02-01T13:46:38;8.57;;;2.80;;
21430;SDS011;10876;49.038;10.608;2023-02-01T13:49:06;9.05;;;2.70;;
21430;SDS011;10876;49.038;10.608;2023-02-01T13:51:35;8.98;;;2.50;;
21430;SDS011;10876;49.038;10.608;2023-02-01T13:54:03;11.30;;;3.67;;
21430;SDS011;10876;49.038;10.608;2023-02-01T13:56:41;8.48;;;2.13;;
21430;SDS011;10876;49.038;10.608;2023-02-01T14:01:54;9.25;;;2.70;;
21430;SDS011;10876;49.038;10.608;2023-02-01T14:07:15;13.32;;;2.53;;
21430;SDS011;10876;49.038;10.608;2023-02-01T14:09:43;8.90;;;2.55;;
21430;SDS011;10876;49.038;10.608;2023-02-01T14:15:00;11.13;;;3.50;;
21430;SDS011;10876;49.038;10.608;2023-02-01T14:17:41;11.07;;;3.63;;
21430;SDS011;10876;49.038;10.608;2023-02-01T14:22:49;8.98;;;2.88;;
21430;SDS011;10876;49.038;10.608;2023-02-01T14:25:16;7.40;;;2.30;;
21430;SDS011;10876;49.038;10.608;2023-02-01T14:27:45;10.05;;;2.53;;
21430;SDS011;10876;49.038;10.608;2023-02-01T14:30:14;12.35;;;3.08;;
21430;SDS011;10876;49.038;10.608;2023-02-01T14:32:42;10.40;;;2.67;;
21430;SDS011;10876;49.038;10.608;2023-02-01T14:35:17;8.52;;;2.00;;
21430;SDS011;10876;49.038;10.608;2023-02-01T14:37:44;7.22;;;2.35;;
21430;SDS011;10876;49.038;10.608;2023-02-01T14:40:15;10.13;;;2.22;;
21430;SDS011;10876;49.038;10.608;2023-02-01T14:42:46;7.43;;;2.33;;
21430;SDS011;10876;49.038;10.608;2023-02-01T14:50:48;8.57;;;2.30;;
21430;SDS011;10876;49.038;10.608;2023-02-01T14:53:17;8.20;;;2.78;;
21430;SDS011;10876;49.038;10.608;2023-02-01T14:55:46;9.23;;;2.10;;
21430;SDS011;10876;49.038;10.608;2023-02-01T14:58:16;5.82;;;2.42;;
21430;SDS011;10876;49.038;10.608;2023-02-01T15:00:49;20.65;;;8.45;;
21430;SDS011;10876;49.038;10.608;2023-02-01T15:03:24;21.10;;;5.85;;
21430;SDS011;10876;49.038;10.608;2023-02-01T15:05:56;8.52;;;2.47;;
21430;SDS011;10876;49.038;10.608;2023-02-01T15:08:24;6.60;;;2.83;;
21430;SDS011;10876;49.038;10.608;2023-02-01T15:10:52;12.27;;;3.13;;
21430;SDS011;10876;49.038;10.608;2023-02-01T15:13:20;7.15;;;3.13;;
21430;SDS011;10876;49.038;10.608;2023-02-01T15:16:00;7.15;;;2.72;;
21430;SDS011;10876;49.038;10.608;2023-02-01T15:18:27;5.18;;;2.60;;